Time;durP1;ratioP1;P1;durP2;ratioP2;P2;SDS_P1;SDS_P2;PMS_P1;PMS_P2;Temp;Humidity;BMP_temperature;BMP_pressure;BME280_temperature;BME280_humidity;BME280_pressure;Samples;Min_cycle;Max_cycle;Signal;HPM_P1;HPM_P2
2021/03/02 00:02:09;;;;;;;28.90;17.42;;;;;;;2.60;71.25;101846.84;5056071;28;20045;-76
2021/03/02 00:04:36;;;;;;;37.38;18.98;;;;;;;2.61;71.24;101853.19;5056036;28;20057;-76
2021/03/02 00:07:04;;;;;;;31.85;18.38;;;;;;;2.56;71.96;101853.88;5055994;28;20049;-76
2021/03/02 00:09:32;;;;;;;26.00;15.77;;;;;;;2.54;71.75;101855.16;5056697;28;20060;-76
2021/03/02 00:11:59;;;;;;;23.02;15.27;;;;;;;2.53;71.17;101847.97;5056174;28;20053;-76
2021/03/02 00:14:26;;;;;;;22.20;14.80;;;;;;;2.50;71.41;101845.66;5056604;28;20053;-76
2021/03/02 00:16:56;;;;;;;19.35;13.30;;;;;;;2.44;71.35;101852.94;5057007;28;20060;-76
2021/03/02 00:19:28;;;;;;;23.60;13.93;;;;;;;2.42;71.11;101855.91;5056286;28;20063;-76
2021/03/02 00:22:06;;;;;;;24.00;14.25;;;;;;;2.40;71.24;101846.22;5055970;28;20044;-76
2021/03/02 00:24:37;;;;;;;30.23;16.67;;;;;;;2.36;71.70;101855.97;5055611;28;20083;-76
2021/03/02 00:27:05;;;;;;;28.63;16.73;;;;;;;2.38;71.78;101851.94;5055746;28;20053;-76
2021/03/02 00:29:33;;;;;;;23.77;14.80;;;;;;;2.31;72.16;101853.91;5055245;28;20057;-76
2021/03/02 00:32:00;;;;;;;27.92;15.18;;;;;;;2.34;71.64;101849.84;5055636;28;20053;-76
2021/03/02 00:34:27;;;;;;;23.70;14.57;;;;;;;2.31;71.30;101855.78;5055374;28;20063;-76
2021/03/02 00:36:54;;;;;;;23.95;14.07;;;;;;;2.26;71.71;101853.72;5055353;28;20051;-76
2021/03/02 00:39:20;;;;;;;23.50;14.65;;;;;;;2.27;71.26;101849.06;5055254;28;20409;-76
2021/03/02 00:41:48;;;;;;;24.27;14.73;;;;;;;2.28;71.56;101845.25;5055083;28;20478;-76
2021/03/02 00:44:15;;;;;;;25.05;14.60;;;;;;;2.28;71.34;101851.59;5055131;28;20402;-76
2021/03/02 00:46:42;;;;;;;21.92;13.88;;;;;;;2.19;71.22;101853.78;5053846;28;20506;-77
2021/03/02 00:49:09;;;;;;;23.52;15.48;;;;;;;2.19;71.66;101850.19;5054638;28;20049;-76
2021/03/02 00:51:37;;;;;;;25.10;14.30;;;;;;;2.18;71.09;101854.00;5054397;28;20394;-76
2021/03/02 00:54:04;;;;;;;24.83;14.65;;;;;;;2.18;71.45;101845.75;5055313;28;20430;-76
2021/03/02 00:56:31;;;;;;;23.70;14.10;;;;;;;2.16;71.32;101856.13;5054935;28;20053;-76
2021/03/02 00:58:59;;;;;;;22.27;13.57;;;;;;;2.11;71.73;101855.97;5054690;28;20056;-76
2021/03/02 01:01:26;;;;;;;19.30;12.85;;;;;;;2.10;71.63;101855.16;5054477;28;20060;-76
2021/03/02 01:03:53;;;;;;;21.92;13.35;;;;;;;2.09;71.75;101849.88;5054385;28;20064;-76
2021/03/02 01:06:19;;;;;;;22.92;14.00;;;;;;;2.10;71.83;101846.03;5054710;28;20056;-76
2021/03/02 01:08:46;;;;;;;22.38;13.75;;;;;;;2.07;72.24;101846.50;5054824;28;20071;-76
2021/03/02 01:11:13;;;;;;;23.67;14.10;;;;;;;2.08;72.04;101859.16;5054489;28;20049;-76
2021/03/02 01:13:40;;;;;;;22.98;13.73;;;;;;;2.09;71.59;101847.13;5054997;28;20061;-76
2021/03/02 01:16:08;;;;;;;24.13;14.38;;;;;;;2.06;71.63;101855.78;5055055;28;20083;-76
2021/03/02 01:18:35;;;;;;;22.30;13.93;;;;;;;2.03;72.23;101852.41;5054204;28;20407;-76
2021/03/02 01:21:02;;;;;;;21.30;13.52;;;;;;;2.02;72.12;101848.00;5054770;28;20064;-76
2021/03/02 01:23:30;;;;;;;21.35;13.18;;;;;;;2.08;71.95;101850.91;5054336;28;20490;-76
2021/03/02 01:25:57;;;;;;;19.60;12.02;;;;;;;2.10;71.15;101844.16;5054479;28;20532;-76
2021/03/02 01:28:24;;;;;;;17.95;12.25;;;;;;;2.08;70.82;101846.28;5054249;28;20049;-76
2021/03/02 01:30:50;;;;;;;21.55;12.35;;;;;;;2.05;71.34;101846.72;5054649;28;20052;-76
2021/03/02 01:33:18;;;;;;;20.38;12.32;;;;;;;2.00;71.32;101835.56;5053977;28;20052;-76
2021/03/02 01:35:45;;;;;;;20.80;12.57;;;;;;;1.96;71.05;101837.06;5054449;28;20386;-76
2021/03/02 01:38:12;;;;;;;20.77;12.32;;;;;;;1.94;71.39;101850.19;5053595;28;20053;-76
2021/03/02 01:40:39;;;;;;;21.85;13.10;;;;;;;1.88;71.68;101840.09;5053601;28;20052;-76
2021/03/02 01:43:05;;;;;;;21.92;12.07;;;;;;;1.90;71.97;101844.28;5053709;28;20049;-76
2021/03/02 01:45:33;;;;;;;18.98;11.60;;;;;;;1.94;71.55;101844.69;5054202;28;20052;-76
2021/03/02 01:47:59;;;;;;;20.63;11.43;;;;;;;1.94;71.46;101837.28;5053405;28;20053;-76
2021/03/02 01:50:27;;;;;;;18.60;11.18;;;;;;;1.89;71.23;101837.13;5053139;28;20060;-76
2021/03/02 01:52:54;;;;;;;19.65;11.75;;;;;;;1.89;71.23;101831.63;5054308;28;20056;-76
2021/03/02 01:55:21;;;;;;;19.33;11.48;;;;;;;1.84;70.67;101842.44;5054129;28;20508;-76
2021/03/02 01:57:48;;;;;;;17.77;11.13;;;;;;;1.86;71.30;101839.47;5053492;28;20049;-76
2021/03/02 02:00:22;;;;;;;18.67;11.23;;;;;;;1.85;70.81;101833.13;5054514;28;20049;-76
2021/03/02 02:02:57;;;;;;;16.85;10.23;;;;;;;1.80;70.96;101836.53;5054194;28;20055;-77
2021/03/02 02:05:25;;;;;;;18.15;10.32;;;;;;;1.82;71.15;101848.13;5053661;28;20406;-77
2021/03/02 02:07:57;;;;;;;16.10;10.60;;;;;;;1.82;71.52;101819.84;5053706;28;20078;-76
2021/03/02 02:10:31;;;;;;;18.20;10.82;;;;;;;1.82;71.28;101825.31;5053242;28;20049;-77
2021/03/02 02:13:05;;;;;;;17.77;10.07;;;;;;;1.81;71.03;101829.16;5053397;28;20049;-77
2021/03/02 02:15:35;;;;;;;15.65;10.05;;;;;;;1.78;71.46;101824.91;5053581;28;20474;-77
2021/03/02 02:18:04;;;;;;;19.55;11.15;;;;;;;1.72;71.33;101819.47;5053740;28;20549;-77
2021/03/02 02:20:44;;;;;;;18.17;11.40;;;;;;;1.67;71.72;101828.41;5053436;28;20084;-77
2021/03/02 02:23:27;;;;;;;17.02;10.27;;;;;;;1.68;71.83;101818.25;5053376;28;20053;-77
2021/03/02 02:26:02;;;;;;;17.17;10.57;;;;;;;1.59;71.79;101820.41;5054375;28;20052;-77
2021/03/02 02:28:32;;;;;;;17.73;10.43;;;;;;;1.59;71.38;101826.75;5053717;28;20056;-77
2021/03/02 02:31:01;;;;;;;16.35;9.80;;;;;;;1.61;71.69;101830.09;5053690;28;20053;-77
2021/03/02 02:33:32;;;;;;;16.92;10.70;;;;;;;1.63;72.13;101818.91;5053205;28;20048;-77
2021/03/02 02:36:00;;;;;;;15.15;9.63;;;;;;;1.65;72.01;101824.19;5053372;28;20057;-77
2021/03/02 02:38:28;;;;;;;15.32;8.98;;;;;;;1.62;72.19;101823.56;5053659;28;20064;-77
2021/03/02 02:40:56;;;;;;;15.73;9.75;;;;;;;1.67;71.91;101824.81;5052909;28;20044;-77
2021/03/02 02:43:23;;;;;;;16.05;9.45;;;;;;;1.68;71.87;101818.25;5053413;28;20049;-77
2021/03/02 02:45:51;;;;;;;13.20;9.57;;;;;;;1.66;71.61;101820.38;5053394;28;20057;-77
2021/03/02 02:48:19;;;;;;;14.93;9.00;;;;;;;1.67;70.91;101813.81;5053301;28;20060;-76
2021/03/02 02:50:46;;;;;;;18.55;9.20;;;;;;;1.66;70.87;101821.22;5053398;28;20482;-76
2021/03/02 02:53:13;;;;;;;15.82;9.15;;;;;;;1.63;70.71;101814.25;5053456;28;20049;-77
2021/03/02 02:55:45;;;;;;;13.63;9.10;;;;;;;1.57;70.83;101828.03;5053861;28;20402;-77
2021/03/02 02:58:17;;;;;;;17.02;9.88;;;;;;;1.55;70.97;101832.91;5053069;28;20057;-77
2021/03/02 03:00:48;;;;;;;15.75;9.68;;;;;;;1.50;71.26;101816.25;5052630;28;20049;-77
2021/03/02 03:03:19;;;;;;;16.42;9.80;;;;;;;1.55;71.25;101816.44;5052908;28;20049;-77
2021/03/02 03:05:49;;;;;;;15.50;9.75;;;;;;;1.58;70.86;101824.25;5052814;28;20060;-77
2021/03/02 03:08:20;;;;;;;14.60;9.07;;;;;;;1.58;70.93;101824.25;5053400;28;20057;-77
2021/03/02 03:10:50;;;;;;;14.63;9.10;;;;;;;1.51;70.38;101818.78;5057545;28;20053;-77
2021/03/02 03:13:19;;;;;;;14.02;8.98;;;;;;;1.50;70.75;101822.59;5056980;28;20060;-77
2021/03/02 03:15:49;;;;;;;16.52;9.70;;;;;;;1.49;70.94;101825.53;5057448;28;20048;-77
2021/03/02 03:18:24;;;;;;;15.10;9.00;;;;;;;1.47;70.86;101823.03;5056939;28;20478;-77
2021/03/02 03:20:51;;;;;;;14.70;9.35;;;;;;;1.47;70.51;101820.31;5057239;28;20417;-78
2021/03/02 03:23:20;;;;;;;13.98;8.90;;;;;;;1.44;70.91;101820.72;5056597;28;20367;-76
2021/03/02 03:25:48;;;;;;;14.52;8.95;;;;;;;1.42;70.94;101820.94;5056813;28;21134;-76
2021/03/02 03:28:17;;;;;;;15.95;9.82;;;;;;;1.44;70.51;101823.47;5056259;28;20053;-77
2021/03/02 03:30:44;;;;;;;16.25;9.65;;;;;;;1.40;71.10;101820.31;5056246;28;20120;-76
2021/03/02 03:33:15;;;;;;;15.52;10.48;;;;;;;1.34;71.30;101821.19;5055868;28;20048;-76
2021/03/02 03:35:43;;;;;;;16.83;9.80;;;;;;;1.35;70.89;101822.06;5056434;28;20056;-76
2021/03/02 03:38:13;;;;;;;16.20;10.45;;;;;;;1.32;71.28;101830.72;5056592;28;20053;-77
2021/03/02 03:40:40;;;;;;;21.75;11.10;;;;;;;1.31;71.45;101829.88;5055972;28;20057;-76
2021/03/02 03:43:07;;;;;;;17.42;10.23;;;;;;;1.29;71.91;101834.75;5055969;28;20057;-77
2021/03/02 03:45:34;;;;;;;18.25;10.45;;;;;;;1.27;71.89;101827.81;5056181;28;20375;-76
2021/03/02 03:48:01;;;;;;;18.77;10.30;;;;;;;1.29;71.69;101832.00;5055963;28;20057;-76
2021/03/02 03:50:28;;;;;;;18.02;10.65;;;;;;;1.30;71.48;101828.22;5055984;28;20057;-76
2021/03/02 03:53:01;;;;;;;16.80;10.75;;;;;;;1.31;71.94;101838.13;5056104;28;20068;-76
2021/03/02 03:55:43;;;;;;;17.02;10.93;;;;;;;1.34;71.87;101834.09;5056324;28;20060;-76
2021/03/02 03:58:15;;;;;;;17.13;10.25;;;;;;;1.31;72.35;101835.38;5056145;28;20060;-77
2021/03/02 04:00:42;;;;;;;15.55;9.60;;;;;;;1.33;72.02;101832.41;5055776;28;20059;-77
2021/03/02 04:03:18;;;;;;;17.73;10.48;;;;;;;1.34;71.81;101825.84;5059822;28;20060;-76
2021/03/02 04:05:48;;;;;;;15.15;9.85;;;;;;;1.32;71.73;101830.72;5059914;28;20057;-76
2021/03/02 04:08:17;;;;;;;;;;;;;;;1.33;71.99;101827.75;5056514;28;20079;-76
2021/03/02 04:10:44;;;;;;;15.00;9.57;;;;;;;1.31;71.54;101829.88;5056059;28;19921;-77
2021/03/02 04:13:12;;;;;;;16.77;10.07;;;;;;;1.32;71.52;101836.19;5055169;28;20049;-76
2021/03/02 04:15:40;;;;;;;15.07;9.88;;;;;;;1.27;71.84;101833.28;5055453;28;20057;-76
2021/03/02 04:18:10;;;;;;;17.92;10.02;;;;;;;1.29;71.28;101833.91;5055413;28;20056;-77
2021/03/02 04:20:37;;;;;;;15.45;9.43;;;;;;;1.29;71.58;101831.16;5054415;28;20067;-76
2021/03/02 04:23:04;;;;;;;16.25;9.73;;;;;;;1.32;71.41;101836.19;5054636;28;20064;-77
2021/03/02 04:25:34;;;;;;;14.65;9.13;;;;;;;1.36;70.98;101840.19;5055205;28;20596;-77
2021/03/02 04:28:02;;;;;;;15.35;9.93;;;;;;;1.25;71.24;101844.47;5054733;28;20402;-76
2021/03/02 04:30:29;;;;;;;19.17;10.82;;;;;;;1.28;70.87;101834.97;5054533;28;20048;-76
2021/03/02 04:32:56;;;;;;;14.32;8.80;;;;;;;1.27;70.93;101839.63;5054809;28;20056;-76
2021/03/02 04:35:23;;;;;;;14.25;8.57;;;;;;;1.31;71.13;101838.13;5054350;28;20410;-77
2021/03/02 04:37:49;;;;;;;14.60;8.75;;;;;;;1.33;71.01;101838.75;5055063;28;20056;-76
2021/03/02 04:40:17;;;;;;;12.00;8.10;;;;;;;1.34;71.09;101836.81;5054884;28;20064;-76
2021/03/02 04:42:45;;;;;;;13.15;7.90;;;;;;;1.33;71.17;101836.00;5054510;28;20049;-76
2021/03/02 04:45:15;;;;;;;12.18;7.97;;;;;;;1.32;71.23;101831.56;5054410;28;20061;-76
2021/03/02 04:47:45;;;;;;;14.23;7.90;;;;;;;1.30;71.03;101836.44;5053872;28;20417;-76
2021/03/02 04:50:13;;;;;;;;;;;;;;;1.27;70.52;101833.28;5054721;28;20383;-76
2021/03/02 04:52:40;;;;;;;15.63;7.38;;;;;;;1.24;70.54;101839.19;5054779;28;19927;-76
2021/03/02 04:55:10;;;;;;;11.35;7.50;;;;;;;1.25;70.85;101846.38;5054544;28;20059;-76
2021/03/02 04:57:37;;;;;;;12.27;7.57;;;;;;;1.24;70.86;101840.06;5054814;28;20057;-76
2021/03/02 05:00:08;;;;;;;12.35;7.70;;;;;;;1.24;70.80;101844.69;5054995;28;20045;-76
2021/03/02 05:02:35;;;;;;;12.48;7.38;;;;;;;1.23;71.08;101840.28;5055009;28;20065;-76
2021/03/02 05:05:03;;;;;;;11.88;7.72;;;;;;;1.19;70.79;101846.19;5054454;28;20059;-76
2021/03/02 05:07:33;;;;;;;15.85;8.23;;;;;;;1.19;70.63;101837.94;5057188;28;20053;-76
2021/03/02 05:10:03;;;;;;;;;;;;;;;1.13;71.00;101849.78;5059254;28;20056;-76
2021/03/02 05:12:32;;;;;;;12.68;6.97;;;;;;;1.08;71.07;101841.38;5058624;28;19927;-76
2021/03/02 05:15:03;;;;;;;16.77;8.80;;;;;;;1.07;71.29;101841.59;5059371;28;20056;-76
2021/03/02 05:17:33;;;;;;;13.00;8.45;;;;;;;1.11;70.98;101840.94;5059668;28;20057;-76
2021/03/02 05:20:03;;;;;;;13.20;8.63;;;;;;;1.12;71.10;101842.63;5059422;28;20049;-76
2021/03/02 05:22:35;;;;;;;;;;;;;;;1.15;70.57;101835.88;5059424;28;20049;-76
2021/03/02 05:25:05;;;;;;;12.05;7.03;;;;;;;1.06;70.87;101840.75;5060178;28;20465;-76
2021/03/02 05:27:36;;;;;;;14.48;8.00;;;;;;;1.07;70.83;101833.38;5058901;28;20417;-76
2021/03/02 05:30:07;;;;;;;13.73;8.27;;;;;;;1.12;70.83;101841.81;5059679;28;20064;-76
2021/03/02 05:32:37;;;;;;;13.43;7.95;;;;;;;1.09;70.58;101829.38;5058329;28;20045;-76
2021/03/02 05:35:04;;;;;;;;;;;;;;;1.09;70.59;101836.72;5054316;28;20049;-76
2021/03/02 05:37:31;;;;;;;10.73;7.28;;;;;;;1.04;70.67;101833.81;5054427;28;19920;-76
2021/03/02 05:39:58;;;;;;;12.73;7.35;;;;;;;1.01;70.91;101835.09;5053948;28;20053;-76
2021/03/02 05:42:25;;;;;;;12.32;7.25;;;;;;;1.04;70.74;101837.38;5055064;28;20053;-76
2021/03/02 05:44:52;;;;;;;11.95;7.43;;;;;;;1.01;70.74;101835.94;5054034;28;20061;-76
2021/03/02 05:47:21;;;;;;;13.35;8.18;;;;;;;1.01;70.57;101835.09;5053881;28;20505;-76
2021/03/02 05:49:49;;;;;;;17.08;8.68;;;;;;;0.94;70.42;101832.34;5054023;28;20053;-76
2021/03/02 05:52:16;;;;;;;11.45;7.20;;;;;;;0.98;70.47;101832.78;5054688;28;20379;-76
2021/03/02 05:54:44;;;;;;;13.25;7.18;;;;;;;0.97;70.43;101837.41;5055052;28;20079;-76
2021/03/02 05:57:12;;;;;;;12.90;7.70;;;;;;;0.95;70.26;101835.97;5055209;28;20045;-76
2021/03/02 05:59:38;;;;;;;14.65;7.93;;;;;;;0.90;70.19;101838.50;5054625;28;20044;-76
2021/03/02 06:02:05;;;;;;;14.57;8.27;;;;;;;0.86;70.20;101838.09;5054469;28;20049;-76
2021/03/02 06:04:32;;;;;;;13.82;8.73;;;;;;;0.87;70.13;101839.78;5054835;28;20061;-76
2021/03/02 06:07:03;;;;;;;16.58;10.13;;;;;;;0.90;70.34;101831.09;5055346;28;20049;-77
2021/03/02 06:09:31;;;;;;;14.15;9.68;;;;;;;0.93;70.44;101840.81;5054491;28;20478;-76
2021/03/02 06:12:01;;;;;;;14.50;10.07;;;;;;;0.98;70.10;101832.78;5044424;28;20046;-77
2021/03/02 06:14:30;;;;;;;12.77;8.43;;;;;;;1.00;70.22;101839.72;5052620;28;20055;-76
2021/03/02 06:16:57;;;;;;;16.17;10.00;;;;;;;0.97;70.20;101836.59;5039205;28;20050;-76
2021/03/02 06:19:42;;;;;;;15.52;9.13;;;;;;;1.00;69.97;101836.13;5034475;28;20061;-76
2021/03/02 06:22:30;;;;;;;18.10;9.48;;;;;;;0.98;70.13;101828.13;5035909;28;20061;-77
2021/03/02 06:24:58;;;;;;;16.25;9.25;;;;;;;1.00;69.91;101839.72;5051634;28;20504;-77
2021/03/02 06:27:25;;;;;;;16.25;9.13;;;;;;;1.05;70.12;101835.47;5052494;28;20045;-77
2021/03/02 06:30:08;;;;;;;15.27;9.25;;;;;;;1.09;70.09;101845.84;5052947;28;20057;-76
2021/03/02 06:32:39;;;;;;;14.93;9.57;;;;;;;1.16;69.99;101851.28;5053182;28;20053;-77
2021/03/02 06:35:08;;;;;;;14.63;9.18;;;;;;;1.17;69.62;101850.22;5053524;28;20064;-76
2021/03/02 06:37:43;;;;;;;16.73;9.05;;;;;;;1.13;69.61;101847.06;5053617;28;20060;-76
2021/03/02 06:40:12;;;;;;;18.40;10.23;;;;;;;1.14;69.72;101854.25;5053185;28;20057;-76
2021/03/02 06:42:40;;;;;;;15.52;9.90;;;;;;;1.26;69.74;101859.91;5053871;28;20055;-76
2021/03/02 06:45:08;;;;;;;16.13;10.38;;;;;;;1.51;69.31;101851.75;5056579;28;20059;-76
2021/03/02 06:47:36;;;;;;;16.20;9.27;;;;;;;1.49;69.06;101853.00;5056926;28;20052;-76
2021/03/02 06:50:06;;;;;;;18.95;10.32;;;;;;;1.62;69.02;101859.28;5041842;28;20049;-76
2021/03/02 06:52:37;;;;;;;16.17;10.03;;;;;;;2.42;68.23;101855.06;5056894;28;20083;-76
2021/03/02 06:55:21;;;;;;;13.85;8.75;;;;;;;3.34;65.33;101857.00;5057420;28;20463;-76
2021/03/02 06:57:49;;;;;;;12.75;7.93;;;;;;;4.30;62.78;101846.84;5056204;28;20045;-77
2021/03/02 07:00:30;;;;;;;11.32;6.90;;;;;;;5.38;59.00;101846.47;5056786;28;20394;-76
2021/03/02 07:02:57;;;;;;;21.67;9.40;;;;;;;6.40;55.55;101839.19;5056933;28;20053;-76
2021/03/02 07:05:24;;;;;;;13.35;6.85;;;;;;;7.21;53.22;101839.50;5056865;28;20054;-76
2021/03/02 07:07:55;;;;;;;11.80;6.47;;;;;;;8.02;50.65;101835.06;5046306;28;20467;-76
2021/03/02 07:10:25;;;;;;;10.48;6.93;;;;;;;8.89;47.79;101830.19;5051098;28;20053;-76
2021/03/02 07:12:54;;;;;;;;;;;;;;;9.67;44.63;101835.75;5054669;28;20053;-76
2021/03/02 07:15:23;;;;;;;10.82;6.43;;;;;;;10.45;43.92;101831.94;5054731;28;19928;-77
2021/03/02 07:17:53;;;;;;;11.80;7.43;;;;;;;11.32;41.42;101826.13;5040723;28;20053;-77
2021/03/02 07:20:23;;;;;;;13.38;7.70;;;;;;;12.13;39.55;101823.09;5056902;28;20057;-76
2021/03/02 07:22:53;;;;;;;12.45;7.18;;;;;;;12.69;38.24;101827.34;5056315;28;20060;-76
2021/03/02 07:25:21;;;;;;;12.10;7.25;;;;;;;13.32;36.17;101820.78;5056617;28;20064;-76
2021/03/02 07:27:50;;;;;;;11.65;7.05;;;;;;;13.87;35.59;101831.47;5057204;28;20508;-76
2021/03/02 07:30:19;;;;;;;9.38;6.32;;;;;;;14.49;34.49;101829.31;5055961;28;20045;-76
2021/03/02 07:32:47;;;;;;;9.52;7.20;;;;;;;15.07;33.58;101818.72;5057264;28;20406;-76
2021/03/02 07:35:18;;;;;;;12.68;7.15;;;;;;;15.68;32.21;101828.59;5039225;28;20462;-76
2021/03/02 07:37:47;;;;;;;10.55;7.13;;;;;;;16.46;30.69;101821.97;5039271;28;20060;-76
2021/03/02 07:40:16;;;;;;;14.65;8.35;;;;;;;17.03;29.49;101825.78;5057460;28;20056;-74
2021/03/02 07:42:46;;;;;;;9.85;7.65;;;;;;;17.53;28.65;101815.28;5053976;28;20068;-75
2021/03/02 07:45:16;;;;;;;12.18;7.47;;;;;;;18.09;27.85;101815.53;5050558;28;20474;-75
2021/03/02 07:47:45;;;;;;;11.15;7.38;;;;;;;18.51;27.36;101832.72;5044727;28;20064;-75
2021/03/02 07:50:22;;;;;;;13.20;9.40;;;;;;;19.12;26.07;101826.88;5050643;28;20422;-75
2021/03/02 07:53:24;;;;;;;13.20;10.60;;;;;;;19.41;25.03;101826.88;5045446;28;20049;-76
2021/03/02 07:56:20;;;;;;;16.17;11.70;;;;;;;20.01;24.43;101824.81;5047713;28;20057;-74
2021/03/02 07:59:17;;;;;;;14.20;12.20;;;;;;;20.68;23.60;101822.00;5048810;28;20060;-73
2021/03/02 08:01:45;;;;;;;13.70;11.98;;;;;;;21.12;23.51;101816.63;5044884;28;20517;-73
2021/03/02 08:04:24;;;;;;;16.17;11.02;;;;;;;21.52;22.76;101821.59;5049622;28;20056;-74
2021/03/02 08:06:51;;;;;;;17.42;12.95;;;;;;;22.11;22.14;101814.44;5052668;28;20053;-73
2021/03/02 08:09:29;;;;;;;23.02;12.93;;;;;;;22.55;21.53;101822.19;5050108;28;20056;-73
2021/03/02 08:12:26;;;;;;;24.00;16.73;;;;;;;23.11;21.07;101813.56;5054078;28;20048;-74
2021/03/02 08:14:54;;;;;;;19.83;14.57;;;;;;;23.70;21.08;101821.03;5050356;28;20057;-74
2021/03/02 08:17:23;;;;;;;18.67;14.68;;;;;;;24.37;19.99;101822.88;5050935;28;20597;-74
2021/03/02 08:19:51;;;;;;;26.15;22.83;;;;;;;24.80;19.63;101817.19;5054252;28;20402;-75
2021/03/02 08:22:46;;;;;;;33.13;28.92;;;;;;;25.08;18.94;101820.56;5051123;28;20061;-74
2021/03/02 08:25:24;;;;;;;26.13;22.70;;;;;;;25.84;17.55;101819.69;5042045;28;20490;-75
2021/03/02 08:27:55;;;;;;;16.83;13.87;;;;;;;26.40;18.16;101822.84;5049837;28;20052;-75
2021/03/02 08:30:24;;;;;;;11.65;9.85;;;;;;;26.85;17.14;101818.84;5050915;28;20056;-75
2021/03/02 08:32:55;;;;;;;14.27;9.90;;;;;;;27.22;16.76;101828.56;5046206;28;20061;-75
2021/03/02 08:35:25;;;;;;;10.85;9.57;;;;;;;27.46;16.38;101824.28;5050089;28;20056;-75
2021/03/02 08:37:54;;;;;;;12.00;10.57;;;;;;;27.91;16.13;101834.38;5051051;28;20056;-75
2021/03/02 08:40:22;;;;;;;15.52;11.02;;;;;;;28.06;15.94;101834.47;5051091;28;20053;-75
2021/03/02 08:43:06;;;;;;;13.68;10.07;;;;;;;28.49;15.61;101829.72;5050161;28;20060;-75
2021/03/02 08:45:38;;;;;;;12.23;10.88;;;;;;;28.75;15.76;101824.88;5045176;28;20049;-75
2021/03/02 08:48:17;;;;;;;18.85;14.50;;;;;;;29.30;15.05;101829.41;5053707;28;20052;-75
2021/03/02 08:50:44;;;;;;;20.17;16.35;;;;;;;29.83;14.92;101824.81;5048886;28;20049;-76
2021/03/02 08:53:31;;;;;;;13.60;12.20;;;;;;;30.59;14.23;101823.22;5052366;28;20053;-75
2021/03/02 08:55:59;;;;;;;19.55;16.75;;;;;;;30.63;14.51;101824.03;5034788;28;20065;-75
2021/03/02 08:58:28;;;;;;;13.75;12.35;;;;;;;30.92;14.64;101815.22;5039774;28;20060;-75
2021/03/02 09:01:00;;;;;;;14.10;10.77;;;;;;;31.34;13.88;101824.72;5049877;28;20082;-75
2021/03/02 09:03:28;;;;;;;12.60;9.85;;;;;;;31.44;14.31;101817.25;5053130;28;20052;-75
2021/03/02 09:06:18;;;;;;;13.68;8.90;;;;;;;31.84;13.81;101824.22;5052324;28;20060;-76
2021/03/02 09:09:00;;;;;;;11.00;8.82;;;;;;;32.73;13.11;101815.63;5050538;28;20057;-75
2021/03/02 09:11:29;;;;;;;11.82;8.77;;;;;;;33.07;13.08;101809.72;5052690;28;20506;-74
2021/03/02 09:13:57;;;;;;;8.45;6.97;;;;;;;33.27;12.83;101815.56;5046775;28;20045;-74
2021/03/02 09:16:44;;;;;;;11.27;7.60;;;;;;;33.40;12.21;101807.06;5051929;28;20060;-74
2021/03/02 09:19:21;;;;;;;8.73;7.82;;;;;;;34.07;12.18;101809.06;5051427;28;20044;-75
2021/03/02 09:21:51;;;;;;;7.75;6.90;;;;;;;34.36;12.54;101809.28;5049746;28;20056;-74
2021/03/02 09:24:19;;;;;;;9.50;7.90;;;;;;;34.93;11.93;101798.41;5048504;28;20045;-75
2021/03/02 09:26:55;;;;;;;10.05;8.40;;;;;;;35.03;11.94;101793.59;5052847;28;20092;-75
2021/03/02 09:29:24;;;;;;;11.73;8.85;;;;;;;35.26;11.94;101799.22;5037851;28;20060;-75
2021/03/02 09:31:52;;;;;;;14.93;10.30;;;;;;;35.83;11.29;101793.94;5047895;28;20053;-75
2021/03/02 09:34:19;;;;;;;13.35;9.63;;;;;;;35.82;11.55;101797.28;5053197;28;20056;-75
2021/03/02 09:36:47;;;;;;;12.45;8.55;;;;;;;36.24;11.38;101806.78;5050679;28;20053;-74
2021/03/02 09:39:23;;;;;;;8.65;7.38;;;;;;;36.35;11.09;101800.66;5052071;28;20056;-74
2021/03/02 09:41:50;;;;;;;15.30;8.77;;;;;;;36.39;10.85;101807.16;5049067;28;20049;-74
2021/03/02 09:44:25;;;;;;;9.82;8.45;;;;;;;37.02;10.49;101802.59;5050396;28;20048;-75
2021/03/02 09:46:56;;;;;;;9.50;8.45;;;;;;;37.32;10.56;101797.47;5045377;28;20060;-75
2021/03/02 09:49:54;;;;;;;9.25;7.65;;;;;;;37.29;10.73;101798.41;5052504;28;20068;-75
2021/03/02 09:52:32;;;;;;;9.20;7.55;;;;;;;37.71;10.95;101798.94;5043718;28;20489;-77
2021/03/02 09:55:26;;;;;;;8.40;6.90;;;;;;;38.02;11.10;101801.09;5057222;28;20060;-75
2021/03/02 09:57:58;;;;;;;8.52;6.88;;;;;;;38.75;10.06;101797.78;5052233;28;20045;-75
2021/03/02 10:00:28;;;;;;;7.80;6.93;;;;;;;39.16;9.62;101791.91;5044682;28;20068;-75
2021/03/02 10:02:59;;;;;;;7.65;6.70;;;;;;;39.54;9.25;101788.56;5051669;28;20056;-75
2021/03/02 10:05:31;;;;;;;11.25;9.07;;;;;;;40.16;9.16;101784.41;5051163;28;20064;-75
2021/03/02 10:07:58;;;;;;;8.30;7.35;;;;;;;40.50;8.99;101785.25;5032809;28;20049;-76
2021/03/02 10:10:38;;;;;;;7.53;6.78;;;;;;;40.82;8.58;101788.69;5048687;28;20076;-76
2021/03/02 10:13:05;;;;;;;7.55;6.68;;;;;;;40.93;8.47;101791.06;5050148;28;20641;-75
2021/03/02 10:15:33;;;;;;;10.48;8.45;;;;;;;40.99;8.10;101783.22;5048716;28;20481;-75
2021/03/02 10:18:00;;;;;;;9.77;8.00;;;;;;;41.27;8.52;101786.00;5049281;28;20516;-76
2021/03/02 10:20:30;;;;;;;10.18;7.95;;;;;;;41.74;7.89;101781.38;5051409;28;20497;-76
2021/03/02 10:23:04;;;;;;;7.90;7.13;;;;;;;41.71;7.94;101783.19;5045850;28;20049;-76
2021/03/02 10:25:41;;;;;;;11.05;7.90;;;;;;;42.02;7.65;101778.16;5050133;28;20060;-76
2021/03/02 10:28:10;;;;;;;7.90;7.10;;;;;;;42.50;7.86;101777.91;5039950;28;20418;-75
2021/03/02 10:30:37;;;;;;;9.45;6.75;;;;;;;42.65;6.95;101781.63;5045919;28;21182;-75
2021/03/02 10:33:04;;;;;;;7.85;6.90;;;;;;;43.50;6.97;101768.13;5043244;28;20057;-76
2021/03/02 10:35:31;;;;;;;10.23;7.03;;;;;;;43.13;7.06;101759.91;5049018;28;20052;-76
2021/03/02 10:37:59;;;;;;;7.78;6.88;;;;;;;43.59;6.73;101765.00;5040945;28;20053;-77
2021/03/02 10:40:26;;;;;;;8.35;7.10;;;;;;;43.71;6.86;101757.97;5053801;28;20053;-76
2021/03/02 10:42:53;;;;;;;7.93;7.13;;;;;;;43.97;6.55;101757.13;5053082;28;20064;-76
2021/03/02 10:45:20;;;;;;;9.30;7.07;;;;;;;44.50;6.78;101754.91;5048651;28;21396;-75
2021/03/02 10:47:49;;;;;;;7.50;6.80;;;;;;;45.01;6.61;101756.03;5048423;28;20056;-76
2021/03/02 10:50:16;;;;;;;6.00;5.40;;;;;;;45.09;4.78;101759.25;5048150;28;20120;-75
2021/03/02 10:52:43;;;;;;;5.20;4.50;;;;;;;45.47;3.94;101762.91;5047506;28;20064;-75
2021/03/02 10:55:13;;;;;;;5.10;4.60;;;;;;;44.88;4.26;101761.56;5038168;28;20060;-75
2021/03/02 10:57:41;;;;;;;5.97;3.90;;;;;;;44.84;4.98;101758.06;5040231;28;20410;-76
2021/03/02 11:00:09;;;;;;;5.25;3.88;;;;;;;45.39;4.73;101753.78;5044487;28;20049;-76
2021/03/02 11:02:36;;;;;;;4.60;4.13;;;;;;;45.78;3.91;101750.94;5051760;28;20048;-75
2021/03/02 11:05:03;;;;;;;4.47;4.07;;;;;;;43.50;4.75;101747.59;5046302;28;20462;-74
2021/03/02 11:07:30;;;;;;;5.30;3.70;;;;;;;44.70;4.90;101740.06;5050128;28;20049;-75
2021/03/02 11:09:57;;;;;;;6.32;3.70;;;;;;;43.80;4.67;101747.38;5051413;28;20057;-74
2021/03/02 11:12:23;;;;;;;3.33;2.92;;;;;;;43.91;4.63;101745.34;5047836;28;20429;-77
2021/03/02 11:14:51;;;;;;;3.30;3.00;;;;;;;43.80;4.42;101745.22;5048642;28;20057;-75
2021/03/02 11:17:18;;;;;;;3.38;3.05;;;;;;;43.30;4.90;101742.53;5045573;28;20466;-75
2021/03/02 11:19:45;;;;;;;4.47;3.30;;;;;;;42.67;4.87;101732.09;5045751;28;20401;-75
2021/03/02 11:22:12;;;;;;;4.32;3.88;;;;;;;42.83;4.89;101732.84;5046430;28;20056;-75
2021/03/02 11:24:39;;;;;;;4.55;3.20;;;;;;;42.93;4.67;101737.28;5050580;28;20052;-75
2021/03/02 11:27:06;;;;;;;3.78;3.40;;;;;;;42.73;5.06;101730.03;5049115;28;20045;-76
2021/03/02 11:29:35;;;;;;;5.07;3.63;;;;;;;42.74;4.78;101734.59;5048693;28;20068;-74
2021/03/02 11:32:03;;;;;;;3.83;3.30;;;;;;;41.76;5.47;101732.72;5052864;28;20060;-74
2021/03/02 11:34:30;;;;;;;4.55;2.70;;;;;;;43.06;4.90;101728.91;5053338;28;20053;-78
2021/03/02 11:36:57;;;;;;;3.50;2.83;;;;;;;43.74;4.73;101720.88;5054270;28;20057;-75
2021/03/02 11:39:24;;;;;;;3.30;3.00;;;;;;;43.74;4.40;101723.81;5050329;28;20049;-74